sensor_id;sensor_type;location;lat;lon;timestamp;P1;durP1;ratioP1;P2;durP2;ratioP2
6566;SDS011;3317;43.994;22.878;2023-07-13T00:01:03;7.73;;;5.50;;
6566;SDS011;3317;43.994;22.878;2023-07-13T00:03:31;8.27;;;6.43;;
6566;SDS011;3317;43.994;22.878;2023-07-13T00:06:01;6.90;;;6.20;;
6566;SDS011;3317;43.994;22.878;2023-07-13T00:08:30;7.37;;;5.60;;
6566;SDS011;3317;43.994;22.878;2023-07-13T00:10:59;6.40;;;4.60;;
6566;SDS011;3317;43.994;22.878;2023-07-13T00:13:26;8.13;;;6.53;;
6566;SDS011;3317;43.994;22.878;2023-07-13T00:15:53;10.70;;;5.50;;
6566;SDS011;3317;43.994;22.878;2023-07-13T00:18:21;5.73;;;4.80;;
6566;SDS011;3317;43.994;22.878;2023-07-13T00:20:48;6.57;;;5.30;;
6566;SDS011;3317;43.994;22.878;2023-07-13T00:23:16;10.23;;;7.30;;
6566;SDS011;3317;43.994;22.878;2023-07-13T00:25:44;8.60;;;7.70;;
6566;SDS011;3317;43.994;22.878;2023-07-13T00:28:11;10.87;;;7.40;;
6566;SDS011;3317;43.994;22.878;2023-07-13T00:30:38;10.63;;;8.20;;
6566;SDS011;3317;43.994;22.878;2023-07-13T00:33:05;12.57;;;8.67;;
6566;SDS011;3317;43.994;22.878;2023-07-13T00:35:32;15.07;;;8.60;;
6566;SDS011;3317;43.994;22.878;2023-07-13T00:38:00;10.30;;;7.97;;
6566;SDS011;3317;43.994;22.878;2023-07-13T00:40:29;11.77;;;8.63;;
6566;SDS011;3317;43.994;22.878;2023-07-13T00:42:57;12.30;;;9.67;;
6566;SDS011;3317;43.994;22.878;2023-07-13T00:48:29;14.57;;;10.10;;
6566;SDS011;3317;43.994;22.878;2023-07-13T00:50:59;11.43;;;9.17;;
6566;SDS011;3317;43.994;22.878;2023-07-13T00:53:28;12.90;;;9.30;;
6566;SDS011;3317;43.994;22.878;2023-07-13T00:55:59;12.37;;;8.30;;
6566;SDS011;3317;43.994;22.878;2023-07-13T00:58:27;14.33;;;10.30;;
6566;SDS011;3317;43.994;22.878;2023-07-13T01:00:55;13.77;;;9.00;;
6566;SDS011;3317;43.994;22.878;2023-07-13T01:03:22;14.87;;;10.53;;
6566;SDS011;3317;43.994;22.878;2023-07-13T01:05:49;14.67;;;10.23;;
6566;SDS011;3317;43.994;22.878;2023-07-13T01:08:19;15.43;;;11.90;;
6566;SDS011;3317;43.994;22.878;2023-07-13T01:10:53;13.53;;;10.63;;
6566;SDS011;3317;43.994;22.878;2023-07-13T01:13:22;16.07;;;10.93;;
6566;SDS011;3317;43.994;22.878;2023-07-13T01:15:50;18.80;;;12.10;;
6566;SDS011;3317;43.994;22.878;2023-07-13T01:18:19;14.10;;;10.50;;
6566;SDS011;3317;43.994;22.878;2023-07-13T01:20:52;15.07;;;12.57;;
6566;SDS011;3317;43.994;22.878;2023-07-13T01:23:19;20.10;;;13.30;;
6566;SDS011;3317;43.994;22.878;2023-07-13T01:25:47;19.43;;;13.97;;
6566;SDS011;3317;43.994;22.878;2023-07-13T01:28:14;22.60;;;15.40;;
6566;SDS011;3317;43.994;22.878;2023-07-13T01:30:42;23.33;;;14.17;;
6566;SDS011;3317;43.994;22.878;2023-07-13T01:33:11;23.70;;;15.70;;
6566;SDS011;3317;43.994;22.878;2023-07-13T01:35:39;23.00;;;16.13;;
6566;SDS011;3317;43.994;22.878;2023-07-13T01:38:08;19.13;;;14.50;;
6566;SDS011;3317;43.994;22.878;2023-07-13T01:40:36;16.03;;;13.80;;
6566;SDS011;3317;43.994;22.878;2023-07-13T01:43:03;15.17;;;13.37;;
6566;SDS011;3317;43.994;22.878;2023-07-13T01:45:31;16.37;;;12.37;;
6566;SDS011;3317;43.994;22.878;2023-07-13T01:47:58;23.93;;;14.13;;
6566;SDS011;3317;43.994;22.878;2023-07-13T01:50:25;16.33;;;13.30;;
6566;SDS011;3317;43.994;22.878;2023-07-13T01:52:52;19.30;;;12.90;;
6566;SDS011;3317;43.994;22.878;2023-07-13T01:55:21;16.20;;;11.90;;
6566;SDS011;3317;43.994;22.878;2023-07-13T01:57:48;16.47;;;12.07;;
6566;SDS011;3317;43.994;22.878;2023-07-13T02:00:16;10.77;;;9.70;;
6566;SDS011;3317;43.994;22.878;2023-07-13T02:02:43;15.00;;;11.27;;
6566;SDS011;3317;43.994;22.878;2023-07-13T02:05:10;15.60;;;11.50;;
6566;SDS011;3317;43.994;22.878;2023-07-13T02:07:38;18.67;;;11.50;;
6566;SDS011;3317;43.994;22.878;2023-07-13T02:10:05;18.10;;;10.80;;
6566;SDS011;3317;43.994;22.878;2023-07-13T02:12:34;13.80;;;11.20;;
6566;SDS011;3317;43.994;22.878;2023-07-13T02:15:01;21.13;;;11.40;;
6566;SDS011;3317;43.994;22.878;2023-07-13T02:17:28;19.10;;;12.80;;
6566;SDS011;3317;43.994;22.878;2023-07-13T02:19:55;21.07;;;12.10;;
6566;SDS011;3317;43.994;22.878;2023-07-13T02:22:22;15.57;;;11.43;;
6566;SDS011;3317;43.994;22.878;2023-07-13T02:24:49;17.13;;;11.93;;
6566;SDS011;3317;43.994;22.878;2023-07-13T02:27:16;12.50;;;11.23;;
6566;SDS011;3317;43.994;22.878;2023-07-13T02:29:44;19.87;;;11.30;;
6566;SDS011;3317;43.994;22.878;2023-07-13T02:32:13;18.00;;;11.20;;
6566;SDS011;3317;43.994;22.878;2023-07-13T02:34:41;14.47;;;11.00;;
6566;SDS011;3317;43.994;22.878;2023-07-13T02:37:08;16.20;;;9.83;;
6566;SDS011;3317;43.994;22.878;2023-07-13T02:39:35;14.53;;;10.10;;
6566;SDS011;3317;43.994;22.878;2023-07-13T02:42:02;11.73;;;8.80;;
6566;SDS011;3317;43.994;22.878;2023-07-13T02:44:29;12.13;;;9.50;;
6566;SDS011;3317;43.994;22.878;2023-07-13T02:46:57;11.03;;;9.10;;
6566;SDS011;3317;43.994;22.878;2023-07-13T02:49:24;9.97;;;8.47;;
6566;SDS011;3317;43.994;22.878;2023-07-13T02:51:51;8.60;;;7.50;;
6566;SDS011;3317;43.994;22.878;2023-07-13T02:54:18;13.40;;;8.37;;
6566;SDS011;3317;43.994;22.878;2023-07-13T02:56:45;9.43;;;7.50;;
6566;SDS011;3317;43.994;22.878;2023-07-13T02:59:12;11.17;;;8.10;;
6566;SDS011;3317;43.994;22.878;2023-07-13T03:01:38;10.33;;;7.60;;
6566;SDS011;3317;43.994;22.878;2023-07-13T03:04:07;12.10;;;8.23;;
6566;SDS011;3317;43.994;22.878;2023-07-13T03:06:34;10.23;;;7.67;;
6566;SDS011;3317;43.994;22.878;2023-07-13T03:09:01;9.60;;;7.43;;
6566;SDS011;3317;43.994;22.878;2023-07-13T03:11:29;9.20;;;7.27;;
6566;SDS011;3317;43.994;22.878;2023-07-13T03:13:56;12.20;;;8.30;;
6566;SDS011;3317;43.994;22.878;2023-07-13T03:16:24;16.40;;;9.40;;
6566;SDS011;3317;43.994;22.878;2023-07-13T03:18:50;13.03;;;8.70;;
6566;SDS011;3317;43.994;22.878;2023-07-13T03:21:19;16.20;;;10.07;;
6566;SDS011;3317;43.994;22.878;2023-07-13T03:23:46;17.13;;;10.00;;
6566;SDS011;3317;43.994;22.878;2023-07-13T03:26:14;10.13;;;8.50;;
6566;SDS011;3317;43.994;22.878;2023-07-13T03:28:43;11.97;;;8.50;;
6566;SDS011;3317;43.994;22.878;2023-07-13T03:31:11;16.23;;;9.00;;
6566;SDS011;3317;43.994;22.878;2023-07-13T03:33:45;13.93;;;9.67;;
6566;SDS011;3317;43.994;22.878;2023-07-13T03:36:14;11.10;;;9.20;;
6566;SDS011;3317;43.994;22.878;2023-07-13T03:38:45;13.03;;;8.97;;
6566;SDS011;3317;43.994;22.878;2023-07-13T03:41:13;11.63;;;8.90;;
6566;SDS011;3317;43.994;22.878;2023-07-13T03:43:40;13.23;;;8.30;;
6566;SDS011;3317;43.994;22.878;2023-07-13T03:46:07;10.93;;;8.77;;
6566;SDS011;3317;43.994;22.878;2023-07-13T03:48:34;10.70;;;7.70;;
6566;SDS011;3317;43.994;22.878;2023-07-13T03:51:01;12.20;;;8.20;;
6566;SDS011;3317;43.994;22.878;2023-07-13T03:53:28;9.17;;;7.57;;
6566;SDS011;3317;43.994;22.878;2023-07-13T03:55:56;10.60;;;7.80;;
6566;SDS011;3317;43.994;22.878;2023-07-13T03:58:25;11.87;;;8.20;;
6566;SDS011;3317;43.994;22.878;2023-07-13T04:00:54;9.53;;;7.17;;
6566;SDS011;3317;43.994;22.878;2023-07-13T04:03:22;11.80;;;7.67;;
6566;SDS011;3317;43.994;22.878;2023-07-13T04:05:50;10.63;;;8.57;;
6566;SDS011;3317;43.994;22.878;2023-07-13T04:08:17;13.03;;;8.10;;
6566;SDS011;3317;43.994;22.878;2023-07-13T04:10:44;17.30;;;8.47;;
6566;SDS011;3317;43.994;22.878;2023-07-13T04:13:12;10.80;;;7.90;;
6566;SDS011;3317;43.994;22.878;2023-07-13T04:15:40;14.03;;;9.13;;
6566;SDS011;3317;43.994;22.878;2023-07-13T04:18:06;14.57;;;9.20;;
6566;SDS011;3317;43.994;22.878;2023-07-13T04:20:34;10.47;;;8.30;;
6566;SDS011;3317;43.994;22.878;2023-07-13T04:23:01;14.30;;;10.87;;
6566;SDS011;3317;43.994;22.878;2023-07-13T04:25:28;12.50;;;10.13;;
6566;SDS011;3317;43.994;22.878;2023-07-13T04:27:55;13.80;;;9.70;;
6566;SDS011;3317;43.994;22.878;2023-07-13T04:30:23;18.70;;;11.30;;
6566;SDS011;3317;43.994;22.878;2023-07-13T04:32:51;14.43;;;10.97;;
6566;SDS011;3317;43.994;22.878;2023-07-13T04:35:18;15.60;;;11.07;;
6566;SDS011;3317;43.994;22.878;2023-07-13T04:37:47;14.53;;;12.00;;
6566;SDS011;3317;43.994;22.878;2023-07-13T04:40:15;18.20;;;11.60;;
6566;SDS011;3317;43.994;22.878;2023-07-13T04:42:43;15.13;;;11.70;;
6566;SDS011;3317;43.994;22.878;2023-07-13T04:45:10;13.67;;;11.20;;
6566;SDS011;3317;43.994;22.878;2023-07-13T04:47:39;13.67;;;11.00;;
6566;SDS011;3317;43.994;22.878;2023-07-13T04:50:07;17.77;;;11.23;;
6566;SDS011;3317;43.994;22.878;2023-07-13T04:52:35;15.60;;;11.00;;
6566;SDS011;3317;43.994;22.878;2023-07-13T04:55:03;12.23;;;10.57;;
6566;SDS011;3317;43.994;22.878;2023-07-13T04:57:31;14.03;;;11.30;;
6566;SDS011;3317;43.994;22.878;2023-07-13T04:59:59;13.13;;;10.70;;
6566;SDS011;3317;43.994;22.878;2023-07-13T05:02:26;22.13;;;11.07;;
6566;SDS011;3317;43.994;22.878;2023-07-13T05:04:54;16.07;;;11.17;;
6566;SDS011;3317;43.994;22.878;2023-07-13T05:07:21;13.30;;;11.73;;
6566;SDS011;3317;43.994;22.878;2023-07-13T05:09:48;14.47;;;11.10;;
6566;SDS011;3317;43.994;22.878;2023-07-13T05:12:15;15.83;;;11.67;;
6566;SDS011;3317;43.994;22.878;2023-07-13T05:14:42;20.97;;;10.80;;
6566;SDS011;3317;43.994;22.878;2023-07-13T05:17:09;16.20;;;11.43;;
6566;SDS011;3317;43.994;22.878;2023-07-13T05:19:36;16.60;;;12.20;;
6566;SDS011;3317;43.994;22.878;2023-07-13T05:22:04;19.70;;;12.50;;
6566;SDS011;3317;43.994;22.878;2023-07-13T05:24:31;15.20;;;10.97;;
6566;SDS011;3317;43.994;22.878;2023-07-13T05:26:58;16.00;;;10.63;;
6566;SDS011;3317;43.994;22.878;2023-07-13T05:29:25;10.90;;;9.77;;
6566;SDS011;3317;43.994;22.878;2023-07-13T05:31:52;12.00;;;10.40;;
6566;SDS011;3317;43.994;22.878;2023-07-13T05:34:19;11.17;;;10.03;;
6566;SDS011;3317;43.994;22.878;2023-07-13T05:36:46;15.00;;;11.30;;
6566;SDS011;3317;43.994;22.878;2023-07-13T05:39:16;16.40;;;10.80;;
6566;SDS011;3317;43.994;22.878;2023-07-13T05:41:43;17.27;;;12.90;;
6566;SDS011;3317;43.994;22.878;2023-07-13T05:44:10;17.57;;;13.07;;
6566;SDS011;3317;43.994;22.878;2023-07-13T05:46:36;17.60;;;12.90;;
6566;SDS011;3317;43.994;22.878;2023-07-13T05:49:03;15.53;;;12.13;;
6566;SDS011;3317;43.994;22.878;2023-07-13T05:51:30;16.47;;;12.63;;
6566;SDS011;3317;43.994;22.878;2023-07-13T05:53:57;16.57;;;12.53;;
6566;SDS011;3317;43.994;22.878;2023-07-13T05:56:25;14.23;;;12.70;;
6566;SDS011;3317;43.994;22.878;2023-07-13T05:58:52;18.87;;;14.00;;
6566;SDS011;3317;43.994;22.878;2023-07-13T06:01:19;22.13;;;13.23;;
6566;SDS011;3317;43.994;22.878;2023-07-13T06:03:47;15.30;;;12.67;;
6566;SDS011;3317;43.994;22.878;2023-07-13T06:06:14;13.93;;;12.40;;
6566;SDS011;3317;43.994;22.878;2023-07-13T06:08:42;20.47;;;13.67;;
6566;SDS011;3317;43.994;22.878;2023-07-13T06:11:10;14.83;;;11.80;;
6566;SDS011;3317;43.994;22.878;2023-07-13T06:13:41;15.13;;;12.40;;
6566;SDS011;3317;43.994;22.878;2023-07-13T06:16:08;16.93;;;11.63;;
6566;SDS011;3317;43.994;22.878;2023-07-13T06:18:35;19.77;;;13.27;;
6566;SDS011;3317;43.994;22.878;2023-07-13T06:21:07;18.23;;;12.67;;
6566;SDS011;3317;43.994;22.878;2023-07-13T06:23:34;16.83;;;12.73;;
6566;SDS011;3317;43.994;22.878;2023-07-13T06:26:01;14.07;;;11.60;;
6566;SDS011;3317;43.994;22.878;2023-07-13T06:28:29;11.90;;;10.00;;
6566;SDS011;3317;43.994;22.878;2023-07-13T06:30:58;11.40;;;10.20;;
6566;SDS011;3317;43.994;22.878;2023-07-13T06:33:25;11.20;;;9.27;;
6566;SDS011;3317;43.994;22.878;2023-07-13T06:35:52;17.93;;;10.17;;
6566;SDS011;3317;43.994;22.878;2023-07-13T06:38:19;17.30;;;10.10;;
6566;SDS011;3317;43.994;22.878;2023-07-13T06:40:46;11.40;;;9.77;;
6566;SDS011;3317;43.994;22.878;2023-07-13T06:43:13;13.40;;;9.93;;
6566;SDS011;3317;43.994;22.878;2023-07-13T06:45:41;13.60;;;10.33;;
6566;SDS011;3317;43.994;22.878;2023-07-13T06:48:12;11.60;;;9.27;;
6566;SDS011;3317;43.994;22.878;2023-07-13T06:50:39;11.33;;;7.97;;
6566;SDS011;3317;43.994;22.878;2023-07-13T06:53:07;16.90;;;8.63;;
6566;SDS011;3317;43.994;22.878;2023-07-13T06:55:34;9.47;;;8.27;;
6566;SDS011;3317;43.994;22.878;2023-07-13T06:58:01;12.77;;;9.43;;
6566;SDS011;3317;43.994;22.878;2023-07-13T07:00:27;12.23;;;8.90;;
6566;SDS011;3317;43.994;22.878;2023-07-13T07:02:54;15.13;;;10.03;;
6566;SDS011;3317;43.994;22.878;2023-07-13T07:05:23;12.40;;;9.87;;
6566;SDS011;3317;43.994;22.878;2023-07-13T07:07:50;15.13;;;10.37;;
6566;SDS011;3317;43.994;22.878;2023-07-13T07:10:18;11.57;;;9.63;;
6566;SDS011;3317;43.994;22.878;2023-07-13T07:12:45;12.07;;;9.37;;
6566;SDS011;3317;43.994;22.878;2023-07-13T07:15:12;12.40;;;9.40;;
6566;SDS011;3317;43.994;22.878;2023-07-13T07:17:40;15.33;;;9.70;;
6566;SDS011;3317;43.994;22.878;2023-07-13T07:20:07;12.03;;;9.70;;
6566;SDS011;3317;43.994;22.878;2023-07-13T07:22:36;9.80;;;8.77;;
6566;SDS011;3317;43.994;22.878;2023-07-13T07:25:03;12.93;;;9.10;;
6566;SDS011;3317;43.994;22.878;2023-07-13T07:27:30;15.87;;;9.13;;
6566;SDS011;3317;43.994;22.878;2023-07-13T07:29:58;12.83;;;7.97;;
6566;SDS011;3317;43.994;22.878;2023-07-13T07:32:29;13.53;;;9.67;;
6566;SDS011;3317;43.994;22.878;2023-07-13T07:34:56;17.73;;;9.67;;
6566;SDS011;3317;43.994;22.878;2023-07-13T07:37:24;14.63;;;9.40;;
6566;SDS011;3317;43.994;22.878;2023-07-13T07:39:52;14.33;;;9.17;;
6566;SDS011;3317;43.994;22.878;2023-07-13T07:42:19;9.30;;;8.30;;
6566;SDS011;3317;43.994;22.878;2023-07-13T07:44:46;15.50;;;9.07;;
6566;SDS011;3317;43.994;22.878;2023-07-13T07:47:13;13.73;;;9.33;;
6566;SDS011;3317;43.994;22.878;2023-07-13T07:49:40;13.47;;;9.00;;
6566;SDS011;3317;43.994;22.878;2023-07-13T07:52:07;16.97;;;9.30;;
6566;SDS011;3317;43.994;22.878;2023-07-13T07:54:34;12.20;;;7.97;;
6566;SDS011;3317;43.994;22.878;2023-07-13T07:57:03;20.60;;;8.67;;
6566;SDS011;3317;43.994;22.878;2023-07-13T07:59:30;17.43;;;8.50;;
6566;SDS011;3317;43.994;22.878;2023-07-13T08:01:57;13.07;;;8.60;;
6566;SDS011;3317;43.994;22.878;2023-07-13T08:04:24;15.10;;;9.40;;
6566;SDS011;3317;43.994;22.878;2023-07-13T08:06:50;12.80;;;9.60;;
6566;SDS011;3317;43.994;22.878;2023-07-13T08:09:17;14.70;;;10.77;;
6566;SDS011;3317;43.994;22.878;2023-07-13T08:11:44;12.90;;;9.67;;
6566;SDS011;3317;43.994;22.878;2023-07-13T08:14:12;10.70;;;8.50;;
6566;SDS011;3317;43.994;22.878;2023-07-13T08:16:39;11.47;;;9.27;;
6566;SDS011;3317;43.994;22.878;2023-07-13T08:19:06;10.27;;;8.70;;
6566;SDS011;3317;43.994;22.878;2023-07-13T08:21:33;10.57;;;8.47;;
6566;SDS011;3317;43.994;22.878;2023-07-13T08:24:00;15.30;;;8.93;;
6566;SDS011;3317;43.994;22.878;2023-07-13T08:26:27;13.50;;;9.20;;
6566;SDS011;3317;43.994;22.878;2023-07-13T08:28:54;18.73;;;8.87;;
6566;SDS011;3317;43.994;22.878;2023-07-13T08:31:22;12.37;;;8.33;;
6566;SDS011;3317;43.994;22.878;2023-07-13T08:33:49;9.20;;;8.13;;
6566;SDS011;3317;43.994;22.878;2023-07-13T08:36:16;10.70;;;8.00;;
6566;SDS011;3317;43.994;22.878;2023-07-13T08:38:43;11.40;;;8.17;;
6566;SDS011;3317;43.994;22.878;2023-07-13T08:41:11;11.43;;;7.30;;
6566;SDS011;3317;43.994;22.878;2023-07-13T08:43:40;8.40;;;7.00;;
6566;SDS011;3317;43.994;22.878;2023-07-13T08:46:10;14.60;;;7.70;;
6566;SDS011;3317;43.994;22.878;2023-07-13T08:48:44;9.20;;;6.60;;
6566;SDS011;3317;43.994;22.878;2023-07-13T08:51:20;8.80;;;6.00;;
6566;SDS011;3317;43.994;22.878;2023-07-13T08:53:57;7.60;;;6.83;;
6566;SDS011;3317;43.994;22.878;2023-07-13T08:56:27;10.03;;;6.67;;
6566;SDS011;3317;43.994;22.878;2023-07-13T08:58:56;9.50;;;6.90;;
6566;SDS011;3317;43.994;22.878;2023-07-13T09:01:28;6.17;;;5.57;;
6566;SDS011;3317;43.994;22.878;2023-07-13T09:04:02;8.40;;;6.17;;
6566;SDS011;3317;43.994;22.878;2023-07-13T09:06:38;7.20;;;5.87;;
6566;SDS011;3317;43.994;22.878;2023-07-13T09:09:15;9.33;;;5.83;;
6566;SDS011;3317;43.994;22.878;2023-07-13T09:11:53;4.87;;;4.47;;
6566;SDS011;3317;43.994;22.878;2023-07-13T09:14:37;8.23;;;6.23;;
6566;SDS011;3317;43.994;22.878;2023-07-13T09:17:11;8.67;;;5.87;;
6566;SDS011;3317;43.994;22.878;2023-07-13T09:19:42;11.60;;;6.70;;
6566;SDS011;3317;43.994;22.878;2023-07-13T09:22:13;9.33;;;7.37;;
6566;SDS011;3317;43.994;22.878;2023-07-13T09:24:49;10.93;;;5.80;;
6566;SDS011;3317;43.994;22.878;2023-07-13T09:27:21;11.50;;;6.83;;
6566;SDS011;3317;43.994;22.878;2023-07-13T09:29:54;6.10;;;5.50;;
6566;SDS011;3317;43.994;22.878;2023-07-13T09:32:28;7.53;;;6.00;;
6566;SDS011;3317;43.994;22.878;2023-07-13T09:34:57;8.33;;;6.10;;
6566;SDS011;3317;43.994;22.878;2023-07-13T09:37:28;9.70;;;6.87;;
6566;SDS011;3317;43.994;22.878;2023-07-13T09:39:57;6.47;;;5.30;;
6566;SDS011;3317;43.994;22.878;2023-07-13T09:42:25;7.00;;;5.20;;
6566;SDS011;3317;43.994;22.878;2023-07-13T09:44:54;8.50;;;5.53;;
6566;SDS011;3317;43.994;22.878;2023-07-13T09:47:23;9.23;;;6.50;;
6566;SDS011;3317;43.994;22.878;2023-07-13T09:49:55;10.40;;;5.90;;
6566;SDS011;3317;43.994;22.878;2023-07-13T09:52:25;7.73;;;5.80;;
6566;SDS011;3317;43.994;22.878;2023-07-13T09:54:53;9.13;;;4.80;;
6566;SDS011;3317;43.994;22.878;2023-07-13T09:57:25;7.70;;;4.73;;
6566;SDS011;3317;43.994;22.878;2023-07-13T09:59:53;11.87;;;5.00;;
6566;SDS011;3317;43.994;22.878;2023-07-13T10:02:25;6.83;;;4.90;;
6566;SDS011;3317;43.994;22.878;2023-07-13T10:04:58;9.00;;;3.87;;
6566;SDS011;3317;43.994;22.878;2023-07-13T10:07:28;9.57;;;4.90;;
6566;SDS011;3317;43.994;22.878;2023-07-13T10:09:56;5.70;;;4.07;;
6566;SDS011;3317;43.994;22.878;2023-07-13T10:12:26;7.17;;;4.40;;
6566;SDS011;3317;43.994;22.878;2023-07-13T10:14:54;6.63;;;3.80;;
6566;SDS011;3317;43.994;22.878;2023-07-13T10:17:25;6.57;;;3.70;;
6566;SDS011;3317;43.994;22.878;2023-07-13T10:19:59;6.47;;;4.70;;
6566;SDS011;3317;43.994;22.878;2023-07-13T10:22:31;9.70;;;4.30;;
6566;SDS011;3317;43.994;22.878;2023-07-13T10:25:11;11.50;;;3.83;;
6566;SDS011;3317;43.994;22.878;2023-07-13T10:27:43;9.17;;;4.33;;
6566;SDS011;3317;43.994;22.878;2023-07-13T10:30:12;7.97;;;3.80;;
6566;SDS011;3317;43.994;22.878;2023-07-13T10:32:43;4.40;;;3.70;;
6566;SDS011;3317;43.994;22.878;2023-07-13T10:35:13;6.70;;;4.30;;
6566;SDS011;3317;43.994;22.878;2023-07-13T10:37:44;10.03;;;4.27;;
6566;SDS011;3317;43.994;22.878;2023-07-13T10:40:16;9.17;;;4.13;;
6566;SDS011;3317;43.994;22.878;2023-07-13T10:42:46;7.17;;;3.93;;
6566;SDS011;3317;43.994;22.878;2023-07-13T10:45:18;5.60;;;4.00;;
6566;SDS011;3317;43.994;22.878;2023-07-13T10:47:46;6.90;;;3.77;;
6566;SDS011;3317;43.994;22.878;2023-07-13T10:50:18;7.60;;;4.30;;
6566;SDS011;3317;43.994;22.878;2023-07-13T10:52:47;5.43;;;3.90;;
6566;SDS011;3317;43.994;22.878;2023-07-13T10:55:32;6.97;;;3.60;;
6566;SDS011;3317;43.994;22.878;2023-07-13T10:58:01;9.30;;;3.63;;
6566;SDS011;3317;43.994;22.878;2023-07-13T11:00:32;7.10;;;4.00;;
6566;SDS011;3317;43.994;22.878;2023-07-13T11:03:10;7.37;;;4.07;;
6566;SDS011;3317;43.994;22.878;2023-07-13T11:05:42;12.47;;;6.67;;
6566;SDS011;3317;43.994;22.878;2023-07-13T11:08:13;5.33;;;3.50;;
6566;SDS011;3317;43.994;22.878;2023-07-13T11:10:47;7.07;;;3.90;;
6566;SDS011;3317;43.994;22.878;2023-07-13T11:19:37;5.67;;;4.10;;
6566;SDS011;3317;43.994;22.878;2023-07-13T11:22:13;5.03;;;4.00;;
6566;SDS011;3317;43.994;22.878;2023-07-13T11:24:52;14.20;;;5.17;;
6566;SDS011;3317;43.994;22.878;2023-07-13T11:27:31;9.80;;;4.10;;
6566;SDS011;3317;43.994;22.878;2023-07-13T11:32:51;4.53;;;3.70;;
6566;SDS011;3317;43.994;22.878;2023-07-13T11:35:31;6.67;;;4.00;;
6566;SDS011;3317;43.994;22.878;2023-07-13T11:38:02;7.63;;;3.70;;
6566;SDS011;3317;43.994;22.878;2023-07-13T11:40:36;7.17;;;3.97;;
6566;SDS011;3317;43.994;22.878;2023-07-13T11:43:03;6.40;;;3.63;;
6566;SDS011;3317;43.994;22.878;2023-07-13T11:45:33;7.37;;;4.07;;
6566;SDS011;3317;43.994;22.878;2023-07-13T11:48:00;3.90;;;3.30;;
6566;SDS011;3317;43.994;22.878;2023-07-13T11:50:27;6.43;;;3.53;;
6566;SDS011;3317;43.994;22.878;2023-07-13T11:52:54;6.80;;;3.50;;
6566;SDS011;3317;43.994;22.878;2023-07-13T11:55:24;8.17;;;3.63;;
6566;SDS011;3317;43.994;22.878;2023-07-13T11:57:53;3.77;;;3.20;;
6566;SDS011;3317;43.994;22.878;2023-07-13T12:00:25;5.50;;;3.30;;
6566;SDS011;3317;43.994;22.878;2023-07-13T12:02:57;4.63;;;3.10;;
6566;SDS011;3317;43.994;22.878;2023-07-13T12:05:27;6.93;;;3.37;;
6566;SDS011;3317;43.994;22.878;2023-07-13T12:07:55;8.97;;;3.73;;
6566;SDS011;3317;43.994;22.878;2023-07-13T12:10:25;4.40;;;3.50;;
6566;SDS011;3317;43.994;22.878;2023-07-13T12:12:55;5.40;;;3.37;;
6566;SDS011;3317;43.994;22.878;2023-07-13T12:15:27;4.60;;;3.70;;
6566;SDS011;3317;43.994;22.878;2023-07-13T12:18:09;5.33;;;3.63;;
6566;SDS011;3317;43.994;22.878;2023-07-13T12:20:39;5.20;;;3.10;;
6566;SDS011;3317;43.994;22.878;2023-07-13T12:23:07;9.87;;;3.97;;
6566;SDS011;3317;43.994;22.878;2023-07-13T12:25:48;4.00;;;3.33;;
6566;SDS011;3317;43.994;22.878;2023-07-13T12:28:21;6.80;;;3.70;;
6566;SDS011;3317;43.994;22.878;2023-07-13T12:30:57;6.23;;;3.83;;
6566;SDS011;3317;43.994;22.878;2023-07-13T12:33:27;6.77;;;4.63;;
6566;SDS011;3317;43.994;22.878;2023-07-13T12:35:56;7.60;;;3.60;;
6566;SDS011;3317;43.994;22.878;2023-07-13T12:38:24;5.20;;;3.50;;
6566;SDS011;3317;43.994;22.878;2023-07-13T12:40:53;6.37;;;3.70;;
6566;SDS011;3317;43.994;22.878;2023-07-13T12:43:20;6.17;;;3.60;;
6566;SDS011;3317;43.994;22.878;2023-07-13T12:45:55;5.83;;;3.40;;
6566;SDS011;3317;43.994;22.878;2023-07-13T12:48:24;6.40;;;3.70;;
6566;SDS011;3317;43.994;22.878;2023-07-13T12:50:51;3.93;;;3.53;;
6566;SDS011;3317;43.994;22.878;2023-07-13T12:53:21;5.50;;;3.53;;
6566;SDS011;3317;43.994;22.878;2023-07-13T12:55:50;5.67;;;3.80;;
6566;SDS011;3317;43.994;22.878;2023-07-13T12:58:26;4.30;;;3.63;;
6566;SDS011;3317;43.994;22.878;2023-07-13T13:00:56;6.87;;;3.40;;
6566;SDS011;3317;43.994;22.878;2023-07-13T13:03:26;4.40;;;3.67;;
6566;SDS011;3317;43.994;22.878;2023-07-13T13:06:01;6.20;;;3.60;;
6566;SDS011;3317;43.994;22.878;2023-07-13T13:08:30;5.13;;;3.40;;
6566;SDS011;3317;43.994;22.878;2023-07-13T13:10:57;6.70;;;3.73;;
6566;SDS011;3317;43.994;22.878;2023-07-13T13:13:26;6.50;;;3.97;;
6566;SDS011;3317;43.994;22.878;2023-07-13T13:15:53;6.10;;;3.70;;
6566;SDS011;3317;43.994;22.878;2023-07-13T13:18:21;4.47;;;3.43;;
6566;SDS011;3317;43.994;22.878;2023-07-13T13:20:49;7.90;;;4.30;;
6566;SDS011;3317;43.994;22.878;2023-07-13T13:23:18;5.33;;;3.37;;
6566;SDS011;3317;43.994;22.878;2023-07-13T13:25:49;4.97;;;3.60;;
6566;SDS011;3317;43.994;22.878;2023-07-13T13:28:18;6.60;;;3.57;;
6566;SDS011;3317;43.994;22.878;2023-07-13T13:30:48;5.43;;;3.60;;
6566;SDS011;3317;43.994;22.878;2023-07-13T13:33:17;5.93;;;3.80;;
6566;SDS011;3317;43.994;22.878;2023-07-13T13:35:45;7.03;;;4.40;;
6566;SDS011;3317;43.994;22.878;2023-07-13T13:38:12;5.93;;;3.40;;
6566;SDS011;3317;43.994;22.878;2023-07-13T13:40:41;7.60;;;4.30;;
6566;SDS011;3317;43.994;22.878;2023-07-13T13:43:13;5.00;;;3.90;;
6566;SDS011;3317;43.994;22.878;2023-07-13T13:45:42;6.43;;;4.00;;
6566;SDS011;3317;43.994;22.878;2023-07-13T13:48:13;9.87;;;4.30;;
6566;SDS011;3317;43.994;22.878;2023-07-13T13:50:42;7.23;;;4.60;;
6566;SDS011;3317;43.994;22.878;2023-07-13T13:53:10;4.93;;;3.93;;
6566;SDS011;3317;43.994;22.878;2023-07-13T13:55:38;6.73;;;4.20;;
6566;SDS011;3317;43.994;22.878;2023-07-13T13:58:07;7.00;;;4.10;;
6566;SDS011;3317;43.994;22.878;2023-07-13T14:00:34;8.40;;;4.33;;
6566;SDS011;3317;43.994;22.878;2023-07-13T14:03:01;11.80;;;4.27;;
6566;SDS011;3317;43.994;22.878;2023-07-13T14:05:30;13.20;;;4.10;;
6566;SDS011;3317;43.994;22.878;2023-07-13T14:07:57;6.00;;;4.17;;
6566;SDS011;3317;43.994;22.878;2023-07-13T14:10:25;7.63;;;4.30;;
6566;SDS011;3317;43.994;22.878;2023-07-13T14:12:53;4.90;;;3.97;;
6566;SDS011;3317;43.994;22.878;2023-07-13T14:15:23;6.57;;;4.00;;
6566;SDS011;3317;43.994;22.878;2023-07-13T14:17:52;7.10;;;4.90;;
6566;SDS011;3317;43.994;22.878;2023-07-13T14:20:19;5.43;;;4.73;;
6566;SDS011;3317;43.994;22.878;2023-07-13T14:22:50;5.57;;;4.00;;
6566;SDS011;3317;43.994;22.878;2023-07-13T14:25:18;7.57;;;4.27;;
6566;SDS011;3317;43.994;22.878;2023-07-13T14:27:46;8.53;;;4.80;;
6566;SDS011;3317;43.994;22.878;2023-07-13T14:30:19;7.00;;;4.90;;
6566;SDS011;3317;43.994;22.878;2023-07-13T14:32:48;6.70;;;4.57;;
6566;SDS011;3317;43.994;22.878;2023-07-13T14:35:16;8.97;;;4.27;;
6566;SDS011;3317;43.994;22.878;2023-07-13T14:37:47;7.43;;;4.40;;
6566;SDS011;3317;43.994;22.878;2023-07-13T14:40:16;6.50;;;4.73;;
6566;SDS011;3317;43.994;22.878;2023-07-13T14:42:45;6.60;;;4.20;;
6566;SDS011;3317;43.994;22.878;2023-07-13T14:45:13;6.83;;;4.40;;
6566;SDS011;3317;43.994;22.878;2023-07-13T14:47:41;6.20;;;4.60;;
6566;SDS011;3317;43.994;22.878;2023-07-13T14:50:12;10.17;;;4.90;;
6566;SDS011;3317;43.994;22.878;2023-07-13T14:52:41;6.50;;;4.90;;
6566;SDS011;3317;43.994;22.878;2023-07-13T14:55:10;8.20;;;4.60;;
6566;SDS011;3317;43.994;22.878;2023-07-13T14:57:39;7.30;;;4.93;;
6566;SDS011;3317;43.994;22.878;2023-07-13T15:00:12;15.07;;;5.70;;
6566;SDS011;3317;43.994;22.878;2023-07-13T15:02:40;7.47;;;4.87;;
6566;SDS011;3317;43.994;22.878;2023-07-13T15:05:14;8.60;;;5.03;;
6566;SDS011;3317;43.994;22.878;2023-07-13T15:07:42;6.33;;;4.70;;
6566;SDS011;3317;43.994;22.878;2023-07-13T15:10:13;11.77;;;5.30;;
6566;SDS011;3317;43.994;22.878;2023-07-13T15:12:43;11.23;;;6.07;;